22:29
Airports
Links
Donate
Help keep this website running!
PayPal
Bitcoin
METAR
KJAX 192156Z 13008KT 10SM FEW045 FEW080 SCT250 29/21 A2993 RMK AO2 SLP135 T02940206
Current Weather Conditions at KJAX
VFR 21:56:00 19-09-17
Automated station
Altimeter:29.93 hg
Temp:29.4°c 84°f
Dew point:20.6°c 68°f
Wind:8 knots, 9.2 mph, 4 m/s, from 130°
Visibility:10.0 statute miles
25000(SCT) Scattered
8000(FEW) A few
4500(FEW) A few
Past METAR reports
VFR 20:56:00 19-09-17
Automated station
Altimeter:29.93 hg
Temp:30.6°c 86°f
Dew point:21.1°c 70°f
Wind:7 knots, 8.1 mph, 4 m/s, from 110°
Visibility:10.0 statute miles
25000(BKN) Broken
8000(SCT) Scattered
4500(FEW) A few
KJAX 192056Z 11007KT 10SM FEW045 SCT080 BKN250 31/21 A2993 RMK AO2 SLP134 T03060211 56016
VFR 19:56:00 19-09-17
Automated station
Altimeter:29.93 hg
Temp:31.1°c 88°f
Dew point:19.4°c 66°f
Wind:4 knots, 4.6 mph, 2 m/s,
Variable direction
Visibility:10.0 statute miles
25000(BKN) Broken
8000(SCT) Scattered
4000(SCT) Scattered
KJAX 191956Z VRB04KT 10SM SCT040 SCT080 BKN250 31/19 A2993 RMK AO2 SLP136 T03110194
VFR 18:56:00 19-09-17
Automated station
Altimeter:29.95 hg
Temp:32.2°c 90°f
Dew point:19.4°c 66°f
Wind:4 knots, 4.6 mph, 2 m/s, from 360°
Visibility:10.0 statute miles
25000(BKN) Broken
4000(SCT) Scattered
KJAX 191856Z 36004KT 10SM SCT040 BKN250 32/19 A2995 RMK AO2 SLP141 T03220194
VFR 17:56:00 19-09-17
Automated station
Altimeter:29.97 hg
Temp:31.7°c 88°f
Dew point:19.4°c 66°f
Wind:3 knots, 3.5 mph, 2 m/s, from 240°
Visibility:10.0 statute miles
25000(BKN) Broken
3500(SCT) Scattered
KJAX 191756Z 24003KT 10SM SCT035 BKN250 32/19 A2997 RMK AO2 SLP150 T03170194 10322 20211 58016
VFR 16:56:00 19-09-17
Automated station
Altimeter:30.00 hg
Temp:30.6°c 86°f
Dew point:19.4°c 66°f
Wind:0 knots, 0 mph, 0 m/s,
Variable direction
Visibility:10.0 statute miles
25000(BKN) Broken
3500(SCT) Scattered
KJAX 191656Z 00000KT 10SM SCT035 BKN250 31/19 A3000 RMK AO2 SLP158 T03060194
TAF
KJAX 191720Z 1918/2018 25004KT P6SM SCT040 FM200000 00000KT P6SM SCT250
Forecast at KJAX
18:00 19-09-17 to 00:00 20-09-17
Wind:4 Knots from 250°
Visibility:6.21 statute miles
4000SCT Scattered
FM 00:00 20-09-17 to 18:00 20-09-17
Wind:0 Knots Variable direction
Visibility:6.21 statute miles
25000SCT Scattered